createdAt,value
2023-04-10T00:00:57.887Z,21.58
2023-04-10T00:03:26.587Z,18.55
2023-04-10T00:05:55.751Z,18.98
2023-04-10T00:08:30.057Z,22.17
2023-04-10T00:10:58.102Z,19.90
2023-04-10T00:13:26.496Z,24.25
2023-04-10T00:15:54.585Z,21.02
2023-04-10T00:18:22.549Z,17.55
2023-04-10T00:20:51.169Z,20.75
2023-04-10T00:23:22.708Z,19.95
2023-04-10T00:25:51.162Z,25.20
2023-04-10T00:28:19.659Z,21.38
2023-04-10T00:30:48.392Z,22.08
2023-04-10T00:33:17.062Z,22.77
2023-04-10T00:35:45.701Z,25.35
2023-04-10T00:38:14.426Z,23.30
2023-04-10T00:40:42.730Z,22.58
2023-04-10T00:43:11.306Z,21.92
2023-04-10T00:45:40.663Z,21.88
2023-04-10T00:48:09.171Z,21.83
2023-04-10T00:50:38.277Z,20.25
2023-04-10T00:53:06.657Z,25.73
2023-04-10T00:55:34.530Z,22.75
2023-04-10T00:58:02.602Z,23.55
2023-04-10T01:00:31.419Z,21.33
2023-04-10T01:03:01.741Z,21.20
2023-04-10T01:05:40.206Z,23.75
2023-04-10T01:08:26.229Z,22.35
2023-04-10T01:11:03.404Z,21.33
2023-04-10T01:14:00.632Z,21.25
2023-04-10T01:16:35.280Z,19.85
2023-04-10T01:19:46.935Z,23.42
2023-04-10T01:22:15.624Z,22.83
2023-04-10T01:25:01.295Z,26.38
2023-04-10T01:27:53.146Z,21.33
2023-04-10T01:30:23.475Z,19.80
2023-04-10T01:32:52.486Z,20.67
2023-04-10T01:35:20.985Z,17.98
2023-04-10T01:37:49.899Z,19.13
2023-04-10T01:40:19.963Z,20.95
2023-04-10T01:42:55.692Z,21.77
2023-04-10T01:45:30.259Z,19.40
2023-04-10T01:47:59.167Z,22.45
2023-04-10T01:50:28.915Z,21.23
2023-04-10T01:52:59.227Z,21.20
2023-04-10T01:55:29.163Z,24.80
2023-04-10T01:58:03.433Z,22.92
2023-04-10T02:00:31.769Z,23.33
2023-04-10T02:03:00.141Z,20.08
2023-04-10T02:05:32.931Z,17.83
2023-04-10T02:08:15.076Z,19.83
2023-04-10T02:10:53.188Z,19.42
2023-04-10T02:13:22.946Z,21.33
2023-04-10T02:15:52.614Z,25.08
2023-04-10T02:18:21.267Z,21.38
2023-04-10T02:20:49.422Z,20.92
2023-04-10T02:23:19.543Z,36.45
2023-04-10T02:25:48.101Z,21.23
2023-04-10T02:28:18.300Z,21.10
2023-04-10T02:30:46.514Z,20.30
2023-04-10T02:33:14.364Z,24.42
2023-04-10T02:35:42.826Z,25.27
2023-04-10T02:38:11.048Z,22.00
2023-04-10T02:40:39.249Z,18.85
2023-04-10T02:43:15.107Z,19.38
2023-04-10T02:45:44.235Z,19.63
2023-04-10T02:48:16.137Z,20.60
2023-04-10T02:50:46.812Z,22.25
2023-04-10T02:53:16.473Z,20.53
2023-04-10T02:55:44.642Z,21.42
2023-04-10T02:58:14.860Z,21.65
2023-04-10T03:00:49.472Z,22.13
2023-04-10T03:03:38.032Z,17.73
2023-04-10T03:06:08.034Z,20.50
2023-04-10T03:08:37.548Z,18.52
2023-04-10T03:11:08.182Z,17.10
2023-04-10T03:13:36.221Z,21.60
2023-04-10T03:16:04.727Z,22.40
2023-04-10T03:18:34.456Z,19.77
2023-04-10T03:21:03.012Z,18.92
2023-04-10T03:23:31.638Z,20.70
2023-04-10T03:25:59.777Z,21.75
2023-04-10T03:28:30.947Z,22.13
2023-04-10T03:30:59.028Z,21.42
2023-04-10T03:33:28.157Z,23.95
2023-04-10T03:35:57.561Z,24.45
2023-04-10T03:38:26.919Z,26.63
2023-04-10T03:40:55.020Z,23.23
2023-04-10T03:43:26.483Z,21.15
2023-04-10T03:45:54.669Z,23.90
2023-04-10T03:48:24.145Z,23.92
2023-04-10T03:50:52.721Z,24.45
2023-04-10T03:53:20.835Z,25.45
2023-04-10T03:55:48.966Z,23.48
2023-04-10T03:58:16.992Z,21.15
2023-04-10T04:00:45.674Z,25.48
2023-04-10T04:03:34.454Z,23.27
2023-04-10T04:06:07.802Z,23.90
2023-04-10T04:09:04.004Z,24.00
2023-04-10T04:11:49.707Z,22.05
2023-04-10T04:14:40.766Z,24.25
2023-04-10T04:17:36.851Z,26.38
2023-04-10T04:20:06.334Z,25.85
2023-04-10T04:22:52.700Z,21.65
2023-04-10T04:25:59.022Z,27.90
2023-04-10T04:28:45.844Z,22.05
2023-04-10T04:31:32.949Z,21.70
2023-04-10T04:34:30.207Z,25.98
2023-04-10T04:37:13.751Z,27.35
2023-04-10T04:40:02.557Z,23.02
2023-04-10T04:42:56.542Z,23.63
2023-04-10T04:45:37.100Z,25.10
2023-04-10T04:48:23.823Z,22.38
2023-04-10T04:51:10.330Z,28.55
2023-04-10T04:53:45.641Z,25.15
2023-04-10T04:56:28.584Z,24.83
2023-04-10T04:59:15.165Z,24.02
2023-04-10T05:02:01.210Z,22.95
2023-04-10T05:05:07.805Z,23.35
2023-04-10T05:07:58.012Z,23.45
2023-04-10T05:10:46.656Z,18.25
2023-04-10T05:13:24.240Z,20.00
2023-04-10T05:16:18.736Z,25.55
2023-04-10T05:19:02.332Z,26.27
2023-04-10T05:21:49.041Z,19.60
2023-04-10T05:24:31.534Z,23.85
2023-04-10T05:27:19.200Z,21.35
2023-04-10T05:29:56.359Z,21.90
2023-04-10T05:33:02.953Z,21.08
2023-04-10T05:35:53.483Z,20.98
2023-04-10T05:38:37.755Z,23.02
2023-04-10T05:41:26.904Z,21.63
2023-04-10T05:44:17.968Z,24.15
2023-04-10T05:46:58.200Z,25.83
2023-04-10T05:49:47.360Z,22.92
2023-04-10T05:52:34.014Z,23.65
2023-04-10T05:55:22.125Z,22.55
2023-04-10T05:58:13.048Z,21.45
2023-04-10T06:01:11.590Z,25.10
2023-04-10T06:03:54.052Z,22.33
2023-04-10T06:06:24.666Z,20.55
2023-04-10T06:08:53.443Z,19.52
2023-04-10T06:11:23.082Z,22.33
2023-04-10T06:16:28.838Z,21.70
2023-04-10T06:18:57.202Z,22.95
2023-04-10T06:21:25.351Z,21.10
2023-04-10T06:23:53.625Z,23.45
2023-04-10T06:26:21.634Z,23.42
2023-04-10T06:28:49.886Z,25.08
2023-04-10T06:31:23.277Z,28.77
2023-04-10T06:33:51.878Z,25.20
2023-04-10T06:36:19.855Z,25.13
2023-04-10T06:38:51.969Z,25.63
2023-04-10T06:41:20.421Z,23.58
2023-04-10T06:43:51.087Z,26.80
2023-04-10T06:46:19.228Z,22.30
2023-04-10T06:48:49.583Z,21.02
2023-04-10T06:51:17.727Z,22.60
2023-04-10T06:53:45.842Z,21.55
2023-04-10T06:56:13.781Z,19.65
2023-04-10T06:58:41.777Z,19.25
2023-04-10T07:01:09.749Z,21.15
2023-04-10T07:03:38.664Z,19.15
2023-04-10T07:06:08.283Z,19.45
2023-04-10T07:08:36.605Z,24.67
2023-04-10T07:11:05.089Z,19.42
2023-04-10T07:13:33.459Z,21.33
2023-04-10T07:16:01.714Z,19.67
2023-04-10T07:18:29.730Z,18.70
2023-04-10T07:20:57.913Z,15.65
2023-04-10T07:23:25.833Z,18.63
2023-04-10T07:25:54.062Z,16.45
2023-04-10T07:28:22.241Z,17.20
2023-04-10T07:30:50.115Z,14.55
2023-04-10T07:33:18.065Z,16.38
2023-04-10T07:35:46.443Z,16.23
2023-04-10T07:38:14.572Z,17.60
2023-04-10T07:40:42.785Z,18.73
2023-04-10T07:43:10.801Z,15.57
2023-04-10T07:45:39.001Z,14.95
2023-04-10T07:48:07.429Z,14.63
2023-04-10T07:50:36.424Z,11.15
2023-04-10T07:53:08.198Z,15.95
2023-04-10T07:55:54.294Z,14.55
2023-04-10T07:58:22.947Z,13.45
2023-04-10T08:00:52.749Z,13.77
2023-04-10T08:03:21.264Z,16.25
2023-04-10T08:05:49.696Z,14.98
2023-04-10T08:08:18.232Z,15.40
2023-04-10T08:10:46.331Z,12.15
2023-04-10T08:13:14.608Z,17.33
2023-04-10T08:15:42.653Z,16.02
2023-04-10T08:18:11.019Z,15.18
2023-04-10T08:20:39.258Z,22.98
2023-04-10T08:23:19.826Z,16.40
2023-04-10T08:25:48.928Z,13.73
2023-04-10T08:28:16.873Z,16.08
2023-04-10T08:30:45.107Z,13.63
2023-04-10T08:33:13.280Z,14.48
2023-04-10T08:35:42.370Z,13.05
2023-04-10T08:38:13.975Z,12.48
2023-04-10T08:40:44.877Z,15.90
2023-04-10T08:43:14.321Z,13.52
2023-04-10T08:45:42.763Z,13.20
2023-04-10T08:48:11.819Z,13.45
2023-04-10T08:50:50.932Z,13.38
2023-04-10T08:53:21.743Z,13.98
2023-04-10T08:55:49.781Z,15.50
2023-04-10T08:58:17.989Z,12.13
2023-04-10T09:00:46.924Z,13.43
2023-04-10T09:03:16.955Z,14.77
2023-04-10T09:05:45.030Z,13.07
2023-04-10T09:08:15.036Z,17.85
2023-04-10T09:10:43.124Z,12.90
2023-04-10T09:13:11.440Z,12.88
2023-04-10T09:15:59.854Z,14.38
2023-04-10T09:18:48.231Z,12.30
2023-04-10T09:21:18.572Z,10.38
2023-04-10T09:23:48.647Z,13.43
2023-04-10T09:26:30.916Z,12.57
2023-04-10T09:29:03.523Z,12.00
2023-04-10T09:31:34.398Z,12.13
2023-04-10T09:34:11.756Z,11.52
2023-04-10T09:36:46.781Z,11.35
2023-04-10T09:39:14.854Z,13.10
2023-04-10T09:41:53.400Z,12.38
2023-04-10T09:44:31.484Z,12.82
2023-04-10T09:47:22.715Z,8.82
2023-04-10T09:49:55.625Z,6.50
2023-04-10T09:52:28.385Z,7.82
2023-04-10T09:55:08.821Z,6.45
2023-04-10T09:57:38.833Z,8.55
2023-04-10T10:00:09.722Z,6.05
2023-04-10T10:02:43.503Z,6.15
2023-04-10T10:05:12.728Z,6.90
2023-04-10T10:07:40.984Z,8.57
2023-04-10T10:10:13.299Z,8.25
2023-04-10T10:13:02.911Z,7.53
2023-04-10T10:15:39.432Z,6.75
2023-04-10T10:18:22.701Z,9.07
2023-04-10T10:20:51.780Z,7.10
2023-04-10T10:23:20.923Z,8.15
2023-04-10T10:25:50.262Z,7.35
2023-04-10T10:28:19.442Z,8.85
2023-04-10T10:30:50.043Z,8.43
2023-04-10T10:33:18.795Z,8.05
2023-04-10T10:35:47.814Z,7.38
2023-04-10T10:38:16.709Z,10.05
2023-04-10T10:41:17.209Z,7.90
2023-04-10T10:44:13.871Z,11.63
2023-04-10T10:47:16.329Z,6.10
2023-04-10T10:49:58.298Z,4.55
2023-04-10T10:52:41.937Z,5.25
2023-04-10T10:55:39.844Z,4.32
2023-04-10T10:58:11.903Z,4.60
2023-04-10T11:00:52.442Z,5.10
2023-04-10T11:03:23.081Z,5.22
2023-04-10T11:05:54.374Z,4.72
2023-04-10T11:08:37.698Z,3.75
2023-04-10T11:11:06.607Z,4.75
2023-04-10T11:14:01.589Z,4.50
2023-04-10T11:16:40.081Z,5.05
2023-04-10T11:19:16.426Z,6.00
2023-04-10T11:22:15.481Z,5.60
2023-04-10T11:25:00.551Z,4.32
2023-04-10T11:27:49.618Z,6.40
2023-04-10T11:30:37.302Z,4.82
2023-04-10T11:33:09.298Z,4.63
2023-04-10T11:35:37.437Z,4.32
2023-04-10T11:38:14.455Z,5.22
2023-04-10T11:41:04.558Z,4.95
2023-04-10T11:43:35.362Z,4.32
2023-04-10T11:46:08.139Z,4.95
2023-04-10T11:48:39.597Z,3.50
2023-04-10T11:51:22.812Z,4.38
2023-04-10T11:53:51.294Z,4.68
2023-04-10T11:56:22.302Z,3.88
2023-04-10T11:58:58.387Z,3.80
2023-04-10T12:01:29.763Z,2.97
2023-04-10T12:03:58.731Z,4.25
2023-04-10T12:06:28.658Z,3.38
2023-04-10T12:09:17.815Z,4.30
2023-04-10T12:12:02.153Z,4.57
2023-04-10T12:14:33.531Z,3.75
2023-04-10T12:19:31.615Z,3.60
2023-04-10T12:22:08.891Z,3.90
2023-04-10T12:24:44.882Z,4.88
2023-04-10T12:27:25.910Z,5.55
2023-04-10T12:32:24.666Z,4.25
2023-04-10T12:35:02.704Z,2.88
2023-04-10T12:37:55.349Z,4.75
2023-04-10T12:40:23.327Z,3.10
2023-04-10T12:42:55.096Z,3.05
2023-04-10T12:45:41.584Z,3.38
2023-04-10T12:48:09.972Z,4.03
2023-04-10T12:50:48.293Z,2.67
2023-04-10T12:53:17.003Z,4.43
2023-04-10T12:56:05.702Z,4.95
2023-04-10T12:58:35.133Z,3.80
2023-04-10T13:01:09.647Z,3.65
2023-04-10T13:03:38.879Z,5.57
2023-04-10T13:06:08.161Z,3.97
2023-04-10T13:08:37.435Z,5.22
2023-04-10T13:11:07.385Z,3.25
2023-04-10T13:13:35.927Z,5.18
2023-04-10T13:16:05.207Z,4.38
2023-04-10T13:18:33.436Z,4.47
2023-04-10T13:21:02.434Z,5.13
2023-04-10T13:23:30.802Z,5.85
2023-04-10T13:25:59.403Z,4.90
2023-04-10T13:28:27.669Z,3.85
2023-04-10T13:30:56.883Z,5.50
2023-04-10T13:33:25.387Z,3.45
2023-04-10T13:35:59.578Z,4.47
2023-04-10T13:38:35.532Z,4.40
2023-04-10T13:41:04.336Z,5.85
2023-04-10T13:43:32.365Z,3.65
2023-04-10T13:46:00.930Z,6.25
2023-04-10T13:48:37.546Z,3.70
2023-04-10T13:51:08.635Z,4.30
2023-04-10T13:53:37.564Z,4.07
2023-04-10T13:56:07.017Z,5.30
2023-04-10T13:58:35.368Z,4.93
2023-04-10T14:01:03.707Z,3.58
2023-04-10T14:03:32.665Z,2.97
2023-04-10T14:06:01.469Z,1.98
2023-04-10T14:08:29.645Z,2.70
2023-04-10T14:10:58.562Z,3.58
2023-04-10T14:13:28.060Z,2.85
2023-04-10T14:15:56.835Z,3.22
2023-04-10T14:18:25.793Z,2.83
2023-04-10T14:20:54.073Z,3.25
2023-04-10T14:23:23.170Z,3.00
2023-04-10T14:25:51.746Z,2.72
2023-04-10T14:28:25.064Z,5.95
2023-04-10T14:30:53.419Z,3.15
2023-04-10T14:33:21.889Z,2.85
2023-04-10T14:35:51.724Z,2.97
2023-04-10T14:38:20.178Z,3.42
2023-04-10T14:40:50.510Z,3.22
2023-04-10T14:43:20.013Z,3.13
2023-04-10T14:45:48.823Z,3.17
2023-04-10T14:48:17.829Z,4.55
2023-04-10T14:50:49.758Z,4.03
2023-04-10T14:53:21.808Z,4.40
2023-04-10T14:55:50.452Z,3.20
2023-04-10T14:58:20.410Z,3.78
2023-04-10T15:00:48.994Z,4.18
2023-04-10T15:03:17.033Z,3.15
2023-04-10T15:05:47.453Z,8.05
2023-04-10T15:08:15.564Z,3.63
2023-04-10T15:10:43.798Z,3.42
2023-04-10T15:13:12.420Z,4.88
2023-04-10T15:15:40.718Z,3.60
2023-04-10T15:18:09.267Z,5.25
2023-04-10T15:20:37.889Z,3.85
2023-04-10T15:23:06.346Z,3.80
2023-04-10T15:25:37.889Z,4.22
2023-04-10T15:28:08.112Z,2.92
2023-04-10T15:30:36.226Z,4.53
2023-04-10T15:33:04.816Z,4.15
2023-04-10T15:35:37.579Z,4.47
2023-04-10T15:38:07.482Z,5.93
2023-04-10T15:40:39.933Z,3.78
2023-04-10T15:43:08.204Z,4.22
2023-04-10T15:45:37.765Z,5.10
2023-04-10T15:48:06.125Z,4.00
2023-04-10T15:50:35.725Z,4.03
2023-04-10T15:53:03.998Z,4.97
2023-04-10T15:55:31.971Z,2.90
2023-04-10T15:58:01.769Z,4.25
2023-04-10T16:00:33.664Z,4.25
2023-04-10T16:03:03.573Z,4.30
2023-04-10T16:05:32.254Z,4.10
2023-04-10T16:08:00.355Z,4.63
2023-04-10T16:10:28.543Z,3.58
2023-04-10T16:12:56.917Z,4.30
2023-04-10T16:15:24.752Z,4.35
2023-04-10T16:17:52.774Z,3.47
2023-04-10T16:20:21.115Z,3.92
2023-04-10T16:22:50.755Z,3.92
2023-04-10T16:25:21.503Z,4.07
2023-04-10T16:30:21.818Z,4.47
2023-04-10T16:32:49.850Z,3.53
2023-04-10T16:35:19.440Z,4.93
2023-04-10T16:37:48.454Z,3.00
2023-04-10T16:40:16.587Z,2.42
2023-04-10T16:42:44.979Z,6.97
2023-04-10T16:45:13.374Z,4.22
2023-04-10T16:47:42.423Z,2.65
2023-04-10T16:50:13.937Z,2.35
2023-04-10T16:52:43.830Z,2.85
2023-04-10T16:55:15.834Z,4.55
2023-04-10T16:57:48.233Z,3.35
2023-04-10T17:00:19.398Z,2.28
2023-04-10T17:02:48.940Z,3.00
2023-04-10T17:05:17.883Z,2.55
2023-04-10T17:07:45.998Z,2.60
2023-04-10T17:10:15.309Z,2.47
2023-04-10T17:12:43.808Z,2.75
2023-04-10T17:15:13.783Z,2.70
2023-04-10T17:17:42.107Z,2.53
2023-04-10T17:20:12.213Z,1.98
2023-04-10T17:22:41.949Z,3.35
2023-04-10T17:25:11.086Z,4.30
2023-04-10T17:27:40.742Z,2.85
2023-04-10T17:30:13.026Z,3.75
2023-04-10T17:32:44.835Z,2.50
2023-04-10T17:35:12.995Z,2.80
2023-04-10T17:37:41.067Z,2.50
2023-04-10T17:40:10.184Z,3.28
2023-04-10T17:42:40.381Z,2.75
2023-04-10T17:45:09.131Z,2.90
2023-04-10T17:47:37.999Z,2.50
2023-04-10T17:50:08.538Z,2.47
2023-04-10T17:52:42.517Z,2.47
2023-04-10T17:55:10.700Z,2.85
2023-04-10T17:57:40.549Z,3.08
2023-04-10T18:00:11.367Z,3.83
2023-04-10T18:02:39.540Z,4.88
2023-04-10T18:05:08.787Z,2.50
2023-04-10T18:07:38.184Z,2.35
2023-04-10T18:10:09.727Z,3.55
2023-04-10T18:12:40.862Z,3.08
2023-04-10T18:15:09.804Z,4.00
2023-04-10T18:17:39.392Z,2.33
2023-04-10T18:20:08.784Z,3.17
2023-04-10T18:22:36.859Z,3.08
2023-04-10T18:25:08.530Z,3.47
2023-04-10T18:27:36.909Z,3.90
2023-04-10T18:30:05.385Z,2.95
2023-04-10T18:32:34.030Z,2.53
2023-04-10T18:35:04.144Z,2.15
2023-04-10T18:37:33.005Z,3.28
2023-04-10T18:40:09.879Z,2.60
2023-04-10T18:42:44.107Z,3.03
2023-04-10T18:45:13.315Z,2.63
2023-04-10T18:47:41.822Z,2.95
2023-04-10T18:50:12.217Z,3.90
2023-04-10T18:52:40.178Z,2.70
2023-04-10T18:55:08.570Z,2.55
2023-04-10T18:57:36.561Z,3.55
2023-04-10T19:00:07.083Z,3.75
2023-04-10T19:02:39.132Z,3.85
2023-04-10T19:05:08.747Z,2.63
2023-04-10T19:07:43.289Z,3.70
2023-04-10T19:10:16.818Z,2.63
2023-04-10T19:12:45.701Z,4.45
2023-04-10T19:15:14.665Z,3.25
2023-04-10T19:17:42.803Z,3.80
2023-04-10T19:20:11.527Z,2.47
2023-04-10T19:22:40.004Z,4.50
2023-04-10T19:25:08.473Z,5.32
2023-04-10T19:27:37.146Z,4.63
2023-04-10T19:30:06.154Z,3.58
2023-04-10T19:32:42.366Z,4.05
2023-04-10T19:35:13.668Z,4.97
2023-04-10T19:37:42.965Z,4.20
2023-04-10T19:40:11.967Z,4.32
2023-04-10T19:42:40.417Z,3.05
2023-04-10T19:45:09.458Z,4.72
2023-04-10T19:47:38.880Z,4.60
2023-04-10T19:50:08.292Z,3.90
2023-04-10T19:52:37.838Z,4.65
2023-04-10T19:55:07.832Z,2.78
2023-04-10T19:57:39.139Z,2.90
2023-04-10T20:00:10.136Z,3.22
2023-04-10T20:02:42.514Z,4.68
2023-04-10T20:05:11.707Z,4.68
2023-04-10T20:07:39.927Z,4.30
2023-04-10T20:10:11.082Z,3.55
2023-04-10T20:12:39.920Z,4.93
2023-04-10T20:15:09.171Z,3.60
2023-04-10T20:17:39.888Z,4.10
2023-04-10T20:20:09.073Z,3.00
2023-04-10T20:22:37.656Z,2.90
2023-04-10T20:25:07.377Z,4.25
2023-04-10T20:27:35.517Z,4.07
2023-04-10T20:30:05.348Z,3.15
2023-04-10T20:32:34.959Z,5.07
2023-04-10T20:35:03.872Z,4.70
2023-04-10T20:37:32.225Z,4.43
2023-04-10T20:40:01.211Z,3.95
2023-04-10T20:42:29.646Z,3.45
2023-04-10T20:44:58.211Z,3.75
2023-04-10T20:47:26.902Z,2.08
2023-04-10T20:49:55.364Z,3.58
2023-04-10T20:52:24.547Z,3.05
2023-04-10T20:54:53.165Z,2.83
2023-04-10T20:57:21.476Z,3.13
2023-04-10T20:59:50.358Z,3.88
2023-04-10T21:02:19.057Z,3.30
2023-04-10T21:04:47.944Z,3.45
2023-04-10T21:07:16.078Z,4.05
2023-04-10T21:09:45.086Z,2.53
2023-04-10T21:12:13.805Z,4.10
2023-04-10T21:14:42.072Z,3.88
2023-04-10T21:17:10.040Z,3.47
2023-04-10T21:19:38.209Z,2.95
2023-04-10T21:22:06.705Z,3.38
2023-04-10T21:24:36.746Z,3.30
2023-04-10T21:27:05.737Z,3.85
2023-04-10T21:29:35.305Z,5.82
2023-04-10T21:32:03.952Z,2.88
2023-04-10T21:34:36.419Z,2.92
2023-04-10T21:37:05.115Z,3.50
2023-04-10T21:39:39.426Z,4.13
2023-04-10T21:42:08.848Z,4.57
2023-04-10T21:44:44.558Z,2.70
2023-04-10T21:47:14.581Z,2.63
2023-04-10T21:49:42.967Z,2.65
2023-04-10T21:52:18.648Z,2.67
2023-04-10T21:54:46.985Z,2.72
2023-04-10T21:57:15.607Z,3.90
2023-04-10T21:59:46.038Z,3.03
2023-04-10T22:02:14.749Z,2.42
2023-04-10T22:04:53.808Z,3.38
2023-04-10T22:07:23.601Z,3.90
2023-04-10T22:09:52.064Z,3.40
2023-04-10T22:12:21.555Z,2.88
2023-04-10T22:14:51.456Z,2.78
2023-04-10T22:17:19.817Z,3.40
2023-04-10T22:19:48.764Z,3.70
2023-04-10T22:22:20.944Z,3.38
2023-04-10T22:24:50.333Z,3.50
2023-04-10T22:27:18.926Z,4.53
2023-04-10T22:30:02.196Z,3.22
2023-04-10T22:32:32.130Z,3.17
2023-04-10T22:35:01.381Z,3.72
2023-04-10T22:37:30.111Z,2.72
2023-04-10T22:40:00.866Z,2.85
2023-04-10T22:42:32.002Z,3.40
2023-04-10T22:45:00.904Z,2.65
2023-04-10T22:47:29.227Z,2.28
2023-04-10T22:49:58.818Z,3.38
2023-04-10T22:52:27.407Z,2.78
2023-04-10T22:54:55.961Z,3.17
2023-04-10T22:57:24.676Z,2.72
2023-04-10T22:59:52.880Z,3.33
2023-04-10T23:02:21.550Z,2.28
2023-04-10T23:04:51.146Z,1.63
2023-04-10T23:07:19.454Z,3.88
2023-04-10T23:09:47.899Z,2.67
2023-04-10T23:12:16.102Z,4.65
2023-04-10T23:14:45.270Z,3.03
2023-04-10T23:17:15.122Z,1.88
2023-04-10T23:19:43.397Z,1.77
2023-04-10T23:22:13.226Z,2.22
2023-04-10T23:24:42.316Z,2.60
2023-04-10T23:27:11.230Z,3.92
2023-04-10T23:29:40.119Z,2.10
2023-04-10T23:32:08.607Z,2.88
2023-04-10T23:34:37.459Z,3.40
2023-04-10T23:37:05.575Z,2.67
2023-04-10T23:39:34.771Z,2.80
2023-04-10T23:42:03.672Z,2.78
2023-04-10T23:44:32.003Z,2.40
2023-04-10T23:47:00.858Z,2.30
2023-04-10T23:49:29.037Z,3.92
2023-04-10T23:51:57.189Z,2.85
2023-04-10T23:54:25.159Z,3.08
2023-04-10T23:56:53.243Z,4.78
2023-04-10T23:59:21.393Z,3.90
